sensor_id;sensor_type;location;lat;lon;timestamp;P1;durP1;ratioP1;P2;durP2;ratioP2
19929;SDS011;10127;47.780;9.606;2022-08-07T00:00:50;13.63;;;11.82;;
19929;SDS011;10127;47.780;9.606;2022-08-07T00:03:15;17.48;;;12.55;;
19929;SDS011;10127;47.780;9.606;2022-08-07T00:05:41;14.55;;;12.27;;
19929;SDS011;10127;47.780;9.606;2022-08-07T00:08:07;13.70;;;12.05;;
19929;SDS011;10127;47.780;9.606;2022-08-07T00:10:32;15.07;;;12.82;;
19929;SDS011;10127;47.780;9.606;2022-08-07T00:12:59;16.75;;;12.50;;
19929;SDS011;10127;47.780;9.606;2022-08-07T00:15:26;15.55;;;12.15;;
19929;SDS011;10127;47.780;9.606;2022-08-07T00:17:52;13.27;;;11.90;;
19929;SDS011;10127;47.780;9.606;2022-08-07T00:20:18;14.25;;;12.75;;
19929;SDS011;10127;47.780;9.606;2022-08-07T00:22:44;19.23;;;13.25;;
19929;SDS011;10127;47.780;9.606;2022-08-07T00:25:09;14.32;;;12.35;;
19929;SDS011;10127;47.780;9.606;2022-08-07T00:27:35;14.25;;;11.95;;
19929;SDS011;10127;47.780;9.606;2022-08-07T00:30:01;16.73;;;13.15;;
19929;SDS011;10127;47.780;9.606;2022-08-07T00:32:28;16.95;;;13.70;;
19929;SDS011;10127;47.780;9.606;2022-08-07T00:34:53;15.73;;;13.52;;
19929;SDS011;10127;47.780;9.606;2022-08-07T00:37:19;15.18;;;13.65;;
19929;SDS011;10127;47.780;9.606;2022-08-07T00:39:45;17.65;;;14.15;;
19929;SDS011;10127;47.780;9.606;2022-08-07T00:42:11;15.25;;;13.65;;
19929;SDS011;10127;47.780;9.606;2022-08-07T00:44:36;15.80;;;13.52;;
19929;SDS011;10127;47.780;9.606;2022-08-07T00:47:03;16.30;;;13.00;;
19929;SDS011;10127;47.780;9.606;2022-08-07T00:49:29;15.65;;;13.48;;
19929;SDS011;10127;47.780;9.606;2022-08-07T00:51:55;17.10;;;13.80;;
19929;SDS011;10127;47.780;9.606;2022-08-07T00:54:21;20.83;;;14.38;;
19929;SDS011;10127;47.780;9.606;2022-08-07T00:56:47;18.75;;;14.50;;
19929;SDS011;10127;47.780;9.606;2022-08-07T00:59:13;18.02;;;14.27;;
19929;SDS011;10127;47.780;9.606;2022-08-07T01:01:39;20.17;;;13.77;;
19929;SDS011;10127;47.780;9.606;2022-08-07T01:04:06;16.70;;;13.93;;
19929;SDS011;10127;47.780;9.606;2022-08-07T01:06:32;19.40;;;14.38;;
19929;SDS011;10127;47.780;9.606;2022-08-07T01:08:58;17.70;;;14.07;;
19929;SDS011;10127;47.780;9.606;2022-08-07T01:11:25;16.25;;;14.48;;
19929;SDS011;10127;47.780;9.606;2022-08-07T01:13:51;17.90;;;14.25;;
19929;SDS011;10127;47.780;9.606;2022-08-07T01:16:17;17.33;;;14.25;;
19929;SDS011;10127;47.780;9.606;2022-08-07T01:18:43;19.30;;;14.73;;
19929;SDS011;10127;47.780;9.606;2022-08-07T01:21:12;18.45;;;14.45;;
19929;SDS011;10127;47.780;9.606;2022-08-07T01:23:41;15.82;;;14.18;;
19929;SDS011;10127;47.780;9.606;2022-08-07T01:26:08;21.65;;;16.08;;
19929;SDS011;10127;47.780;9.606;2022-08-07T01:28:35;16.65;;;14.52;;
19929;SDS011;10127;47.780;9.606;2022-08-07T01:31:02;19.20;;;15.30;;
19929;SDS011;10127;47.780;9.606;2022-08-07T01:33:28;16.25;;;14.23;;
19929;SDS011;10127;47.780;9.606;2022-08-07T01:35:55;18.90;;;14.45;;
19929;SDS011;10127;47.780;9.606;2022-08-07T01:38:22;20.42;;;15.57;;
19929;SDS011;10127;47.780;9.606;2022-08-07T01:40:48;19.98;;;16.38;;
19929;SDS011;10127;47.780;9.606;2022-08-07T01:43:14;17.88;;;15.43;;
19929;SDS011;10127;47.780;9.606;2022-08-07T01:45:40;17.55;;;15.65;;
19929;SDS011;10127;47.780;9.606;2022-08-07T01:48:07;21.58;;;15.48;;
19929;SDS011;10127;47.780;9.606;2022-08-07T01:50:34;16.30;;;14.23;;
19929;SDS011;10127;47.780;9.606;2022-08-07T01:53:01;17.48;;;14.93;;
19929;SDS011;10127;47.780;9.606;2022-08-07T01:55:41;18.15;;;14.63;;
19929;SDS011;10127;47.780;9.606;2022-08-07T01:58:09;18.33;;;16.10;;
19929;SDS011;10127;47.780;9.606;2022-08-07T02:00:38;21.52;;;15.60;;
19929;SDS011;10127;47.780;9.606;2022-08-07T02:03:06;20.95;;;15.50;;
19929;SDS011;10127;47.780;9.606;2022-08-07T02:05:46;17.02;;;15.23;;
19929;SDS011;10127;47.780;9.606;2022-08-07T02:08:17;19.52;;;15.93;;
19929;SDS011;10127;47.780;9.606;2022-08-07T02:10:47;19.60;;;15.55;;
19929;SDS011;10127;47.780;9.606;2022-08-07T02:13:17;20.10;;;16.17;;
19929;SDS011;10127;47.780;9.606;2022-08-07T02:15:45;18.33;;;15.73;;
19929;SDS011;10127;47.780;9.606;2022-08-07T02:18:12;17.73;;;15.63;;
19929;SDS011;10127;47.780;9.606;2022-08-07T02:20:41;18.08;;;15.68;;
19929;SDS011;10127;47.780;9.606;2022-08-07T02:23:07;19.10;;;16.10;;
19929;SDS011;10127;47.780;9.606;2022-08-07T02:25:35;19.08;;;15.40;;
19929;SDS011;10127;47.780;9.606;2022-08-07T02:28:03;20.13;;;15.43;;
19929;SDS011;10127;47.780;9.606;2022-08-07T02:30:30;20.13;;;16.40;;
19929;SDS011;10127;47.780;9.606;2022-08-07T02:32:57;18.70;;;15.55;;
19929;SDS011;10127;47.780;9.606;2022-08-07T02:35:24;19.00;;;16.50;;
19929;SDS011;10127;47.780;9.606;2022-08-07T02:37:51;20.30;;;17.02;;
19929;SDS011;10127;47.780;9.606;2022-08-07T02:40:18;18.55;;;16.33;;
19929;SDS011;10127;47.780;9.606;2022-08-07T02:42:44;19.30;;;16.45;;
19929;SDS011;10127;47.780;9.606;2022-08-07T02:45:12;24.17;;;16.42;;
19929;SDS011;10127;47.780;9.606;2022-08-07T02:47:40;20.33;;;15.95;;
19929;SDS011;10127;47.780;9.606;2022-08-07T02:50:06;22.27;;;17.52;;
19929;SDS011;10127;47.780;9.606;2022-08-07T03:13:06;20.73;;;17.88;;
19929;SDS011;10127;47.780;9.606;2022-08-07T03:15:33;23.77;;;18.05;;
19929;SDS011;10127;47.780;9.606;2022-08-07T03:17:59;22.88;;;18.17;;
19929;SDS011;10127;47.780;9.606;2022-08-07T03:20:25;28.50;;;19.00;;
19929;SDS011;10127;47.780;9.606;2022-08-07T03:22:51;21.65;;;17.67;;
19929;SDS011;10127;47.780;9.606;2022-08-07T03:25:18;22.65;;;19.48;;
19929;SDS011;10127;47.780;9.606;2022-08-07T03:27:45;21.77;;;18.08;;
19929;SDS011;10127;47.780;9.606;2022-08-07T03:30:12;22.85;;;18.42;;
19929;SDS011;10127;47.780;9.606;2022-08-07T03:32:40;22.25;;;17.30;;
19929;SDS011;10127;47.780;9.606;2022-08-07T03:35:18;19.27;;;16.17;;
19929;SDS011;10127;47.780;9.606;2022-08-07T03:38:03;20.77;;;16.92;;
19929;SDS011;10127;47.780;9.606;2022-08-07T03:40:32;19.95;;;17.00;;
19929;SDS011;10127;47.780;9.606;2022-08-07T03:42:58;20.27;;;16.88;;
19929;SDS011;10127;47.780;9.606;2022-08-07T03:45:24;19.20;;;16.65;;
19929;SDS011;10127;47.780;9.606;2022-08-07T03:47:52;20.15;;;17.23;;
19929;SDS011;10127;47.780;9.606;2022-08-07T03:50:18;23.60;;;17.73;;
19929;SDS011;10127;47.780;9.606;2022-08-07T03:52:44;23.35;;;17.92;;
19929;SDS011;10127;47.780;9.606;2022-08-07T03:55:12;19.65;;;16.58;;
19929;SDS011;10127;47.780;9.606;2022-08-07T03:57:38;19.98;;;16.58;;
19929;SDS011;10127;47.780;9.606;2022-08-07T04:00:05;21.75;;;17.25;;
19929;SDS011;10127;47.780;9.606;2022-08-07T04:02:31;19.20;;;17.17;;
19929;SDS011;10127;47.780;9.606;2022-08-07T04:04:57;20.60;;;17.40;;
19929;SDS011;10127;47.780;9.606;2022-08-07T04:07:22;20.40;;;17.40;;
19929;SDS011;10127;47.780;9.606;2022-08-07T04:09:48;23.25;;;17.90;;
19929;SDS011;10127;47.780;9.606;2022-08-07T04:12:15;25.10;;;17.17;;
19929;SDS011;10127;47.780;9.606;2022-08-07T04:14:41;21.63;;;16.77;;
19929;SDS011;10127;47.780;9.606;2022-08-07T04:17:07;21.98;;;16.80;;
19929;SDS011;10127;47.780;9.606;2022-08-07T04:19:33;18.65;;;16.33;;
19929;SDS011;10127;47.780;9.606;2022-08-07T04:22:00;18.58;;;16.67;;
19929;SDS011;10127;47.780;9.606;2022-08-07T04:24:26;23.10;;;17.50;;
19929;SDS011;10127;47.780;9.606;2022-08-07T04:26:52;18.95;;;15.43;;
19929;SDS011;10127;47.780;9.606;2022-08-07T04:29:18;19.65;;;15.80;;
19929;SDS011;10127;47.780;9.606;2022-08-07T04:31:44;18.52;;;15.80;;
19929;SDS011;10127;47.780;9.606;2022-08-07T04:34:10;17.27;;;15.18;;
19929;SDS011;10127;47.780;9.606;2022-08-07T04:36:36;16.88;;;14.60;;
19929;SDS011;10127;47.780;9.606;2022-08-07T04:39:04;19.92;;;14.93;;
19929;SDS011;10127;47.780;9.606;2022-08-07T04:41:29;16.52;;;13.85;;
19929;SDS011;10127;47.780;9.606;2022-08-07T04:43:55;16.73;;;14.55;;
19929;SDS011;10127;47.780;9.606;2022-08-07T04:46:30;16.50;;;14.40;;
19929;SDS011;10127;47.780;9.606;2022-08-07T04:54:33;22.05;;;14.75;;
19929;SDS011;10127;47.780;9.606;2022-08-07T05:05:42;15.93;;;13.93;;
19929;SDS011;10127;47.780;9.606;2022-08-07T05:10:53;17.15;;;13.35;;
19929;SDS011;10127;47.780;9.606;2022-08-07T05:16:00;16.85;;;13.30;;
19929;SDS011;10127;47.780;9.606;2022-08-07T05:18:29;18.20;;;13.18;;
19929;SDS011;10127;47.780;9.606;2022-08-07T05:20:58;16.17;;;13.68;;
19929;SDS011;10127;47.780;9.606;2022-08-07T05:26:03;16.40;;;12.35;;
19929;SDS011;10127;47.780;9.606;2022-08-07T05:28:32;13.77;;;11.55;;
19929;SDS011;10127;47.780;9.606;2022-08-07T05:30:58;18.98;;;12.93;;
19929;SDS011;10127;47.780;9.606;2022-08-07T05:33:27;15.57;;;11.77;;
19929;SDS011;10127;47.780;9.606;2022-08-07T05:35:54;14.00;;;10.55;;
19929;SDS011;10127;47.780;9.606;2022-08-07T05:38:21;13.52;;;10.80;;
19929;SDS011;10127;47.780;9.606;2022-08-07T05:40:48;11.40;;;9.50;;
19929;SDS011;10127;47.780;9.606;2022-08-07T05:43:14;16.13;;;10.18;;
19929;SDS011;10127;47.780;9.606;2022-08-07T05:45:41;11.27;;;9.02;;
19929;SDS011;10127;47.780;9.606;2022-08-07T05:48:07;11.25;;;9.00;;
19929;SDS011;10127;47.780;9.606;2022-08-07T05:50:33;10.68;;;8.57;;
19929;SDS011;10127;47.780;9.606;2022-08-07T05:53:01;9.98;;;8.38;;
19929;SDS011;10127;47.780;9.606;2022-08-07T05:55:27;9.57;;;8.20;;
19929;SDS011;10127;47.780;9.606;2022-08-07T05:57:54;10.43;;;7.43;;
19929;SDS011;10127;47.780;9.606;2022-08-07T06:00:21;8.82;;;7.00;;
19929;SDS011;10127;47.780;9.606;2022-08-07T06:02:49;7.88;;;7.07;;
19929;SDS011;10127;47.780;9.606;2022-08-07T06:05:17;7.47;;;6.57;;
19929;SDS011;10127;47.780;9.606;2022-08-07T06:07:45;7.72;;;6.13;;
19929;SDS011;10127;47.780;9.606;2022-08-07T06:10:11;9.35;;;5.97;;
19929;SDS011;10127;47.780;9.606;2022-08-07T06:12:37;9.25;;;4.95;;
19929;SDS011;10127;47.780;9.606;2022-08-07T06:15:03;6.50;;;5.28;;
19929;SDS011;10127;47.780;9.606;2022-08-07T06:17:29;6.20;;;4.40;;
19929;SDS011;10127;47.780;9.606;2022-08-07T06:19:57;6.38;;;4.68;;
19929;SDS011;10127;47.780;9.606;2022-08-07T06:22:23;5.53;;;4.70;;
19929;SDS011;10127;47.780;9.606;2022-08-07T06:24:49;7.40;;;4.57;;
19929;SDS011;10127;47.780;9.606;2022-08-07T06:27:21;5.47;;;3.88;;
19929;SDS011;10127;47.780;9.606;2022-08-07T06:29:48;5.35;;;3.67;;
19929;SDS011;10127;47.780;9.606;2022-08-07T06:32:14;4.75;;;4.03;;
19929;SDS011;10127;47.780;9.606;2022-08-07T06:34:40;4.78;;;3.78;;
19929;SDS011;10127;47.780;9.606;2022-08-07T06:37:06;5.80;;;4.00;;
19929;SDS011;10127;47.780;9.606;2022-08-07T06:39:31;4.40;;;3.70;;
19929;SDS011;10127;47.780;9.606;2022-08-07T06:42:07;5.55;;;3.50;;
19929;SDS011;10127;47.780;9.606;2022-08-07T06:44:34;5.90;;;3.22;;
19929;SDS011;10127;47.780;9.606;2022-08-07T06:47:02;5.55;;;3.40;;
19929;SDS011;10127;47.780;9.606;2022-08-07T06:49:28;3.97;;;2.95;;
19929;SDS011;10127;47.780;9.606;2022-08-07T06:51:54;4.00;;;3.08;;
19929;SDS011;10127;47.780;9.606;2022-08-07T06:54:21;4.18;;;3.17;;
19929;SDS011;10127;47.780;9.606;2022-08-07T06:56:50;4.97;;;3.10;;
19929;SDS011;10127;47.780;9.606;2022-08-07T07:02:14;4.00;;;3.03;;
19929;SDS011;10127;47.780;9.606;2022-08-07T07:04:44;3.40;;;2.63;;
19929;SDS011;10127;47.780;9.606;2022-08-07T07:07:10;3.80;;;2.97;;
19929;SDS011;10127;47.780;9.606;2022-08-07T07:09:35;3.97;;;2.80;;
19929;SDS011;10127;47.780;9.606;2022-08-07T07:14:35;4.88;;;3.17;;
19929;SDS011;10127;47.780;9.606;2022-08-07T07:17:07;2.65;;;2.40;;
19929;SDS011;10127;47.780;9.606;2022-08-07T07:19:38;4.22;;;3.17;;
19929;SDS011;10127;47.780;9.606;2022-08-07T07:22:09;7.50;;;3.22;;
19929;SDS011;10127;47.780;9.606;2022-08-07T07:24:36;4.30;;;3.10;;
19929;SDS011;10127;47.780;9.606;2022-08-07T07:27:03;4.05;;;2.72;;
19929;SDS011;10127;47.780;9.606;2022-08-07T07:29:32;6.90;;;3.40;;
19929;SDS011;10127;47.780;9.606;2022-08-07T07:32:01;3.88;;;2.72;;
19929;SDS011;10127;47.780;9.606;2022-08-07T07:34:29;4.80;;;2.95;;
19929;SDS011;10127;47.780;9.606;2022-08-07T07:36:57;6.25;;;2.75;;
19929;SDS011;10127;47.780;9.606;2022-08-07T07:39:26;3.80;;;2.78;;
19929;SDS011;10127;47.780;9.606;2022-08-07T07:41:55;4.30;;;3.13;;
19929;SDS011;10127;47.780;9.606;2022-08-07T07:44:21;4.45;;;2.58;;
19929;SDS011;10127;47.780;9.606;2022-08-07T07:46:48;4.30;;;2.88;;
19929;SDS011;10127;47.780;9.606;2022-08-07T07:49:16;4.15;;;2.65;;
19929;SDS011;10127;47.780;9.606;2022-08-07T07:51:43;3.92;;;2.90;;
19929;SDS011;10127;47.780;9.606;2022-08-07T07:54:11;9.32;;;3.45;;
19929;SDS011;10127;47.780;9.606;2022-08-07T07:56:38;3.00;;;2.70;;
19929;SDS011;10127;47.780;9.606;2022-08-07T07:59:05;2.85;;;2.42;;
19929;SDS011;10127;47.780;9.606;2022-08-07T08:01:33;4.55;;;2.50;;
19929;SDS011;10127;47.780;9.606;2022-08-07T08:04:04;3.40;;;2.53;;
19929;SDS011;10127;47.780;9.606;2022-08-07T08:06:31;4.95;;;2.67;;
19929;SDS011;10127;47.780;9.606;2022-08-07T08:08:59;3.40;;;2.55;;
19929;SDS011;10127;47.780;9.606;2022-08-07T08:11:28;3.92;;;2.90;;
19929;SDS011;10127;47.780;9.606;2022-08-07T08:13:54;3.05;;;2.08;;
19929;SDS011;10127;47.780;9.606;2022-08-07T08:16:20;4.18;;;2.55;;
19929;SDS011;10127;47.780;9.606;2022-08-07T08:18:56;4.03;;;2.40;;
19929;SDS011;10127;47.780;9.606;2022-08-07T08:21:23;4.93;;;2.47;;
19929;SDS011;10127;47.780;9.606;2022-08-07T08:24:08;3.55;;;2.58;;
19929;SDS011;10127;47.780;9.606;2022-08-07T08:26:53;3.22;;;2.70;;
19929;SDS011;10127;47.780;9.606;2022-08-07T08:32:30;6.00;;;2.60;;
19929;SDS011;10127;47.780;9.606;2022-08-07T08:34:58;3.40;;;2.42;;
19929;SDS011;10127;47.780;9.606;2022-08-07T08:37:26;2.75;;;2.33;;
19929;SDS011;10127;47.780;9.606;2022-08-07T08:39:54;3.90;;;2.88;;
19929;SDS011;10127;47.780;9.606;2022-08-07T08:42:36;3.72;;;2.30;;
19929;SDS011;10127;47.780;9.606;2022-08-07T08:45:17;3.45;;;2.13;;
19929;SDS011;10127;47.780;9.606;2022-08-07T08:47:55;7.82;;;2.10;;
19929;SDS011;10127;47.780;9.606;2022-08-07T08:50:31;4.95;;;2.45;;
19929;SDS011;10127;47.780;9.606;2022-08-07T08:59:06;3.50;;;2.50;;
19929;SDS011;10127;47.780;9.606;2022-08-07T09:19:11;4.65;;;2.33;;
19929;SDS011;10127;47.780;9.606;2022-08-07T09:22:05;4.13;;;1.98;;
19929;SDS011;10127;47.780;9.606;2022-08-07T09:30:06;4.10;;;2.25;;
19929;SDS011;10127;47.780;9.606;2022-08-07T09:32:45;2.10;;;1.90;;
19929;SDS011;10127;47.780;9.606;2022-08-07T09:38:11;3.00;;;1.50;;
19929;SDS011;10127;47.780;9.606;2022-08-07T09:43:27;2.85;;;2.00;;
19929;SDS011;10127;47.780;9.606;2022-08-07T09:46:27;4.07;;;2.25;;
19929;SDS011;10127;47.780;9.606;2022-08-07T09:49:28;2.80;;;1.77;;
19929;SDS011;10127;47.780;9.606;2022-08-07T09:55:12;2.50;;;1.90;;
19929;SDS011;10127;47.780;9.606;2022-08-07T10:00:49;3.78;;;1.90;;
19929;SDS011;10127;47.780;9.606;2022-08-07T10:03:30;2.40;;;1.50;;
19929;SDS011;10127;47.780;9.606;2022-08-07T10:11:43;2.65;;;1.63;;
19929;SDS011;10127;47.780;9.606;2022-08-07T10:25:39;2.63;;;1.67;;
19929;SDS011;10127;47.780;9.606;2022-08-07T10:33:53;2.33;;;1.83;;
19929;SDS011;10127;47.780;9.606;2022-08-07T10:39:21;1.67;;;1.27;;
19929;SDS011;10127;47.780;9.606;2022-08-07T10:42:02;3.92;;;1.65;;
19929;SDS011;10127;47.780;9.606;2022-08-07T10:44:33;4.15;;;1.35;;
19929;SDS011;10127;47.780;9.606;2022-08-07T10:47:20;3.22;;;1.77;;
19929;SDS011;10127;47.780;9.606;2022-08-07T10:50:02;1.08;;;0.98;;
19929;SDS011;10127;47.780;9.606;2022-08-07T10:55:30;2.13;;;1.30;;
19929;SDS011;10127;47.780;9.606;2022-08-07T10:58:33;2.70;;;1.40;;
19929;SDS011;10127;47.780;9.606;2022-08-07T11:01:23;3.30;;;1.20;;
19929;SDS011;10127;47.780;9.606;2022-08-07T11:03:58;2.90;;;1.20;;
19929;SDS011;10127;47.780;9.606;2022-08-07T11:09:11;1.50;;;1.38;;
19929;SDS011;10127;47.780;9.606;2022-08-07T11:12:16;2.67;;;1.45;;
19929;SDS011;10127;47.780;9.606;2022-08-07T11:14:41;1.85;;;1.30;;
19929;SDS011;10127;47.780;9.606;2022-08-07T11:17:23;2.47;;;1.23;;
19929;SDS011;10127;47.780;9.606;2022-08-07T11:19:58;2.65;;;1.30;;
19929;SDS011;10127;47.780;9.606;2022-08-07T11:22:36;2.63;;;1.40;;
19929;SDS011;10127;47.780;9.606;2022-08-07T11:25:16;1.40;;;1.20;;
19929;SDS011;10127;47.780;9.606;2022-08-07T11:27:56;1.38;;;1.13;;
19929;SDS011;10127;47.780;9.606;2022-08-07T11:30:31;3.63;;;1.45;;
19929;SDS011;10127;47.780;9.606;2022-08-07T11:44:50;2.15;;;1.13;;
19929;SDS011;10127;47.780;9.606;2022-08-07T12:04:30;2.95;;;1.48;;
19929;SDS011;10127;47.780;9.606;2022-08-07T12:07:15;1.52;;;1.00;;
19929;SDS011;10127;47.780;9.606;2022-08-07T12:12:58;4.95;;;1.40;;
19929;SDS011;10127;47.780;9.606;2022-08-07T12:15:29;2.30;;;1.27;;
19929;SDS011;10127;47.780;9.606;2022-08-07T12:18:02;1.88;;;1.30;;
19929;SDS011;10127;47.780;9.606;2022-08-07T12:20:37;2.15;;;1.13;;
19929;SDS011;10127;47.780;9.606;2022-08-07T12:26:10;2.70;;;1.50;;
19929;SDS011;10127;47.780;9.606;2022-08-07T12:31:26;2.67;;;1.50;;
19929;SDS011;10127;47.780;9.606;2022-08-07T12:34:00;2.75;;;1.38;;
19929;SDS011;10127;47.780;9.606;2022-08-07T12:36:27;2.15;;;1.15;;
19929;SDS011;10127;47.780;9.606;2022-08-07T12:38:54;2.45;;;1.27;;
19929;SDS011;10127;47.780;9.606;2022-08-07T12:41:22;1.52;;;1.25;;
19929;SDS011;10127;47.780;9.606;2022-08-07T12:43:51;3.53;;;1.20;;
19929;SDS011;10127;47.780;9.606;2022-08-07T12:52:00;2.42;;;1.67;;
19929;SDS011;10127;47.780;9.606;2022-08-07T12:56:59;3.08;;;1.50;;
19929;SDS011;10127;47.780;9.606;2022-08-07T12:59:29;3.92;;;1.55;;
19929;SDS011;10127;47.780;9.606;2022-08-07T13:04:44;3.22;;;1.52;;
19929;SDS011;10127;47.780;9.606;2022-08-07T13:07:33;2.35;;;1.40;;
19929;SDS011;10127;47.780;9.606;2022-08-07T13:18:59;2.05;;;1.38;;
19929;SDS011;10127;47.780;9.606;2022-08-07T13:22:23;3.22;;;1.33;;
19929;SDS011;10127;47.780;9.606;2022-08-07T13:25:02;2.35;;;1.23;;
19929;SDS011;10127;47.780;9.606;2022-08-07T13:27:48;1.70;;;1.27;;
19929;SDS011;10127;47.780;9.606;2022-08-07T13:30:17;2.58;;;1.30;;
19929;SDS011;10127;47.780;9.606;2022-08-07T13:35:45;1.48;;;1.33;;
19929;SDS011;10127;47.780;9.606;2022-08-07T13:41:32;1.52;;;1.40;;
19929;SDS011;10127;47.780;9.606;2022-08-07T13:44:13;2.67;;;1.55;;
19929;SDS011;10127;47.780;9.606;2022-08-07T13:46:44;2.50;;;1.65;;
19929;SDS011;10127;47.780;9.606;2022-08-07T13:49:12;1.30;;;1.20;;
19929;SDS011;10127;47.780;9.606;2022-08-07T13:51:42;2.42;;;1.40;;
19929;SDS011;10127;47.780;9.606;2022-08-07T13:54:11;5.72;;;1.70;;
19929;SDS011;10127;47.780;9.606;2022-08-07T13:56:39;2.75;;;1.40;;
19929;SDS011;10127;47.780;9.606;2022-08-07T13:59:28;2.00;;;1.55;;
19929;SDS011;10127;47.780;9.606;2022-08-07T14:01:59;3.42;;;1.58;;
19929;SDS011;10127;47.780;9.606;2022-08-07T14:07:07;1.67;;;1.25;;
19929;SDS011;10127;47.780;9.606;2022-08-07T14:09:35;3.85;;;1.67;;
19929;SDS011;10127;47.780;9.606;2022-08-07T14:12:04;2.47;;;1.48;;
19929;SDS011;10127;47.780;9.606;2022-08-07T14:14:40;1.50;;;1.40;;
19929;SDS011;10127;47.780;9.606;2022-08-07T14:17:09;3.10;;;1.80;;
19929;SDS011;10127;47.780;9.606;2022-08-07T14:19:55;1.92;;;1.60;;
19929;SDS011;10127;47.780;9.606;2022-08-07T14:22:32;2.70;;;1.73;;
19929;SDS011;10127;47.780;9.606;2022-08-07T14:25:10;2.42;;;1.50;;
19929;SDS011;10127;47.780;9.606;2022-08-07T14:27:40;1.48;;;1.30;;
19929;SDS011;10127;47.780;9.606;2022-08-07T14:30:10;2.30;;;1.50;;
19929;SDS011;10127;47.780;9.606;2022-08-07T14:32:41;2.25;;;1.73;;
19929;SDS011;10127;47.780;9.606;2022-08-07T14:35:10;3.22;;;1.38;;
19929;SDS011;10127;47.780;9.606;2022-08-07T14:37:48;6.78;;;1.60;;
19929;SDS011;10127;47.780;9.606;2022-08-07T14:40:18;6.43;;;1.70;;
19929;SDS011;10127;47.780;9.606;2022-08-07T14:42:51;2.40;;;1.70;;
19929;SDS011;10127;47.780;9.606;2022-08-07T14:45:24;1.83;;;1.60;;
19929;SDS011;10127;47.780;9.606;2022-08-07T14:48:00;1.30;;;1.20;;
19929;SDS011;10127;47.780;9.606;2022-08-07T14:50:27;1.50;;;1.40;;
19929;SDS011;10127;47.780;9.606;2022-08-07T14:52:54;1.60;;;1.45;;
19929;SDS011;10127;47.780;9.606;2022-08-07T14:55:20;2.75;;;1.45;;
19929;SDS011;10127;47.780;9.606;2022-08-07T14:57:54;2.63;;;1.52;;
19929;SDS011;10127;47.780;9.606;2022-08-07T15:00:22;3.42;;;1.90;;
19929;SDS011;10127;47.780;9.606;2022-08-07T15:02:53;1.95;;;1.55;;
19929;SDS011;10127;47.780;9.606;2022-08-07T15:05:20;5.30;;;1.17;;
19929;SDS011;10127;47.780;9.606;2022-08-07T15:07:48;3.13;;;1.30;;
19929;SDS011;10127;47.780;9.606;2022-08-07T15:10:18;3.65;;;1.48;;
19929;SDS011;10127;47.780;9.606;2022-08-07T15:12:50;2.60;;;1.60;;
19929;SDS011;10127;47.780;9.606;2022-08-07T15:15:28;2.55;;;1.30;;
19929;SDS011;10127;47.780;9.606;2022-08-07T15:18:21;2.40;;;1.50;;
19929;SDS011;10127;47.780;9.606;2022-08-07T15:20:56;2.17;;;1.35;;
19929;SDS011;10127;47.780;9.606;2022-08-07T15:23:27;1.45;;;1.25;;
19929;SDS011;10127;47.780;9.606;2022-08-07T15:25:55;2.90;;;1.35;;
19929;SDS011;10127;47.780;9.606;2022-08-07T15:28:23;3.63;;;1.25;;
19929;SDS011;10127;47.780;9.606;2022-08-07T15:30:54;1.75;;;1.35;;
19929;SDS011;10127;47.780;9.606;2022-08-07T15:33:23;2.40;;;1.30;;
19929;SDS011;10127;47.780;9.606;2022-08-07T15:35:50;4.15;;;1.38;;
19929;SDS011;10127;47.780;9.606;2022-08-07T15:38:16;2.65;;;1.50;;
19929;SDS011;10127;47.780;9.606;2022-08-07T15:40:45;1.33;;;1.23;;
19929;SDS011;10127;47.780;9.606;2022-08-07T15:43:16;3.92;;;1.30;;
19929;SDS011;10127;47.780;9.606;2022-08-07T15:45:46;1.25;;;0.98;;
19929;SDS011;10127;47.780;9.606;2022-08-07T15:48:21;1.98;;;1.38;;
19929;SDS011;10127;47.780;9.606;2022-08-07T15:50:51;2.17;;;1.30;;
19929;SDS011;10127;47.780;9.606;2022-08-07T15:53:26;1.33;;;1.20;;
19929;SDS011;10127;47.780;9.606;2022-08-07T15:55:57;2.25;;;1.50;;
19929;SDS011;10127;47.780;9.606;2022-08-07T15:58:46;2.38;;;0.93;;
19929;SDS011;10127;47.780;9.606;2022-08-07T16:01:16;2.75;;;1.40;;
19929;SDS011;10127;47.780;9.606;2022-08-07T16:03:43;1.50;;;1.20;;
19929;SDS011;10127;47.780;9.606;2022-08-07T16:06:12;1.55;;;1.30;;
19929;SDS011;10127;47.780;9.606;2022-08-07T16:08:39;3.83;;;1.40;;
19929;SDS011;10127;47.780;9.606;2022-08-07T16:14:16;2.70;;;1.42;;
19929;SDS011;10127;47.780;9.606;2022-08-07T16:17:06;2.35;;;1.35;;
19929;SDS011;10127;47.780;9.606;2022-08-07T16:33:51;1.70;;;1.23;;
19929;SDS011;10127;47.780;9.606;2022-08-07T16:36:25;2.35;;;1.48;;
19929;SDS011;10127;47.780;9.606;2022-08-07T16:45:26;2.92;;;1.50;;
19929;SDS011;10127;47.780;9.606;2022-08-07T16:48:24;2.70;;;1.30;;
19929;SDS011;10127;47.780;9.606;2022-08-07T16:51:07;3.83;;;1.65;;
19929;SDS011;10127;47.780;9.606;2022-08-07T16:53:50;2.28;;;1.30;;
19929;SDS011;10127;47.780;9.606;2022-08-07T17:02:20;3.08;;;1.63;;
19929;SDS011;10127;47.780;9.606;2022-08-07T17:05:04;3.13;;;1.80;;
19929;SDS011;10127;47.780;9.606;2022-08-07T17:07:50;6.43;;;1.30;;
19929;SDS011;10127;47.780;9.606;2022-08-07T17:12:47;1.75;;;1.42;;
19929;SDS011;10127;47.780;9.606;2022-08-07T17:15:43;2.00;;;1.55;;
19929;SDS011;10127;47.780;9.606;2022-08-07T17:18:23;3.92;;;1.50;;
19929;SDS011;10127;47.780;9.606;2022-08-07T17:21:00;3.50;;;1.40;;
19929;SDS011;10127;47.780;9.606;2022-08-07T17:26:10;4.43;;;1.58;;
19929;SDS011;10127;47.780;9.606;2022-08-07T17:31:14;1.52;;;1.20;;
19929;SDS011;10127;47.780;9.606;2022-08-07T17:33:52;2.75;;;1.77;;
19929;SDS011;10127;47.780;9.606;2022-08-07T17:36:25;3.08;;;1.52;;
19929;SDS011;10127;47.780;9.606;2022-08-07T17:39:05;2.92;;;1.70;;
19929;SDS011;10127;47.780;9.606;2022-08-07T17:50:18;2.33;;;1.50;;
19929;SDS011;10127;47.780;9.606;2022-08-07T17:52:56;2.80;;;2.13;;
19929;SDS011;10127;47.780;9.606;2022-08-07T17:55:28;3.90;;;1.45;;
19929;SDS011;10127;47.780;9.606;2022-08-07T17:58:06;2.50;;;1.30;;
19929;SDS011;10127;47.780;9.606;2022-08-07T18:00:37;1.45;;;1.20;;
19929;SDS011;10127;47.780;9.606;2022-08-07T18:03:19;2.00;;;1.50;;
19929;SDS011;10127;47.780;9.606;2022-08-07T18:08:29;1.88;;;1.33;;
19929;SDS011;10127;47.780;9.606;2022-08-07T18:13:37;1.77;;;1.30;;
19929;SDS011;10127;47.780;9.606;2022-08-07T18:16:06;2.05;;;1.40;;
19929;SDS011;10127;47.780;9.606;2022-08-07T18:18:48;5.18;;;1.65;;
19929;SDS011;10127;47.780;9.606;2022-08-07T18:38:38;2.75;;;2.05;;
19929;SDS011;10127;47.780;9.606;2022-08-07T18:41:17;2.53;;;1.70;;
19929;SDS011;10127;47.780;9.606;2022-08-07T18:47:09;2.05;;;1.75;;
19929;SDS011;10127;47.780;9.606;2022-08-07T18:52:24;2.10;;;1.90;;
19929;SDS011;10127;47.780;9.606;2022-08-07T19:00:18;3.25;;;2.40;;
19929;SDS011;10127;47.780;9.606;2022-08-07T19:02:46;3.65;;;2.28;;
19929;SDS011;10127;47.780;9.606;2022-08-07T19:08:58;4.10;;;2.10;;
19929;SDS011;10127;47.780;9.606;2022-08-07T19:11:09;4.43;;;2.10;;
19929;SDS011;10127;47.780;9.606;2022-08-07T19:16:37;3.35;;;2.53;;
19929;SDS011;10127;47.780;9.606;2022-08-07T19:19:37;5.30;;;2.30;;
19929;SDS011;10127;47.780;9.606;2022-08-07T19:22:17;2.60;;;2.20;;
19929;SDS011;10127;47.780;9.606;2022-08-07T19:24:58;2.10;;;1.77;;
19929;SDS011;10127;47.780;9.606;2022-08-07T19:27:25;3.30;;;2.00;;
19929;SDS011;10127;47.780;9.606;2022-08-07T19:29:56;2.90;;;1.80;;
19929;SDS011;10127;47.780;9.606;2022-08-07T19:32:25;3.40;;;1.75;;
19929;SDS011;10127;47.780;9.606;2022-08-07T19:34:56;4.35;;;2.00;;
19929;SDS011;10127;47.780;9.606;2022-08-07T19:37:25;2.85;;;1.98;;